sensor_id;sensor_type;location;lat;lon;timestamp;P1;durP1;ratioP1;P2;durP2;ratioP2
54575;SDS011;40472;53.486;14.542;2023-06-22T00:00:53;1.65;;;1.15;;
54575;SDS011;40472;53.486;14.542;2023-06-22T00:03:22;1.88;;;1.08;;
54575;SDS011;40472;53.486;14.542;2023-06-22T00:05:51;2.58;;;1.48;;
54575;SDS011;40472;53.486;14.542;2023-06-22T00:08:18;1.95;;;1.25;;
54575;SDS011;40472;53.486;14.542;2023-06-22T00:10:45;3.20;;;1.00;;
54575;SDS011;40472;53.486;14.542;2023-06-22T00:13:13;2.03;;;1.42;;
54575;SDS011;40472;53.486;14.542;2023-06-22T00:15:40;1.55;;;0.80;;
54575;SDS011;40472;53.486;14.542;2023-06-22T00:18:07;1.65;;;1.00;;
54575;SDS011;40472;53.486;14.542;2023-06-22T00:20:33;1.25;;;0.93;;
54575;SDS011;40472;53.486;14.542;2023-06-22T00:23:02;1.58;;;1.13;;
54575;SDS011;40472;53.486;14.542;2023-06-22T00:25:36;3.97;;;1.20;;
54575;SDS011;40472;53.486;14.542;2023-06-22T00:28:07;1.58;;;1.13;;
54575;SDS011;40472;53.486;14.542;2023-06-22T00:30:33;4.47;;;1.42;;
54575;SDS011;40472;53.486;14.542;2023-06-22T00:32:59;1.30;;;0.98;;
54575;SDS011;40472;53.486;14.542;2023-06-22T00:35:26;3.00;;;1.25;;
54575;SDS011;40472;53.486;14.542;2023-06-22T00:37:54;2.05;;;1.27;;
54575;SDS011;40472;53.486;14.542;2023-06-22T00:40:27;1.95;;;1.23;;
54575;SDS011;40472;53.486;14.542;2023-06-22T00:42:53;1.77;;;1.15;;
54575;SDS011;40472;53.486;14.542;2023-06-22T00:45:20;1.20;;;1.00;;
54575;SDS011;40472;53.486;14.542;2023-06-22T00:47:48;1.67;;;1.23;;
54575;SDS011;40472;53.486;14.542;2023-06-22T00:50:25;2.38;;;1.25;;
54575;SDS011;40472;53.486;14.542;2023-06-22T00:52:55;1.42;;;1.13;;
54575;SDS011;40472;53.486;14.542;2023-06-22T00:55:23;1.02;;;0.90;;
54575;SDS011;40472;53.486;14.542;2023-06-22T00:57:51;2.38;;;1.02;;
54575;SDS011;40472;53.486;14.542;2023-06-22T01:00:20;1.75;;;1.20;;
54575;SDS011;40472;53.486;14.542;2023-06-22T01:02:51;2.50;;;1.50;;
54575;SDS011;40472;53.486;14.542;2023-06-22T01:05:18;6.35;;;1.45;;
54575;SDS011;40472;53.486;14.542;2023-06-22T01:07:52;3.75;;;1.30;;
54575;SDS011;40472;53.486;14.542;2023-06-22T01:10:48;4.03;;;1.38;;
54575;SDS011;40472;53.486;14.542;2023-06-22T01:16:11;9.88;;;1.27;;
54575;SDS011;40472;53.486;14.542;2023-06-22T01:18:49;1.45;;;1.08;;
54575;SDS011;40472;53.486;14.542;2023-06-22T01:21:20;2.20;;;1.40;;
54575;SDS011;40472;53.486;14.542;2023-06-22T01:29:10;2.83;;;1.40;;
54575;SDS011;40472;53.486;14.542;2023-06-22T01:31:38;3.85;;;1.10;;
54575;SDS011;40472;53.486;14.542;2023-06-22T01:34:06;2.65;;;1.33;;
54575;SDS011;40472;53.486;14.542;2023-06-22T01:36:33;1.45;;;1.20;;
54575;SDS011;40472;53.486;14.542;2023-06-22T01:39:00;2.95;;;1.27;;
54575;SDS011;40472;53.486;14.542;2023-06-22T01:41:29;2.20;;;1.73;;
54575;SDS011;40472;53.486;14.542;2023-06-22T01:43:56;1.85;;;1.17;;
54575;SDS011;40472;53.486;14.542;2023-06-22T01:46:22;1.63;;;1.05;;
54575;SDS011;40472;53.486;14.542;2023-06-22T01:48:48;4.35;;;1.60;;
54575;SDS011;40472;53.486;14.542;2023-06-22T01:51:15;2.22;;;1.88;;
54575;SDS011;40472;53.486;14.542;2023-06-22T01:53:41;1.80;;;1.27;;
54575;SDS011;40472;53.486;14.542;2023-06-22T01:56:07;4.40;;;1.90;;
54575;SDS011;40472;53.486;14.542;2023-06-22T01:58:33;1.67;;;1.17;;
54575;SDS011;40472;53.486;14.542;2023-06-22T02:01:10;1.90;;;1.40;;
54575;SDS011;40472;53.486;14.542;2023-06-22T02:04:24;1.58;;;1.23;;
54575;SDS011;40472;53.486;14.542;2023-06-22T02:06:30;2.40;;;1.17;;
54575;SDS011;40472;53.486;14.542;2023-06-22T02:09:02;0.88;;;0.82;;
54575;SDS011;40472;53.486;14.542;2023-06-22T02:11:37;2.75;;;1.27;;
54575;SDS011;40472;53.486;14.542;2023-06-22T02:14:07;2.22;;;1.30;;
54575;SDS011;40472;53.486;14.542;2023-06-22T02:16:34;1.52;;;1.23;;
54575;SDS011;40472;53.486;14.542;2023-06-22T02:19:02;1.95;;;1.25;;
54575;SDS011;40472;53.486;14.542;2023-06-22T02:21:28;1.85;;;1.40;;
54575;SDS011;40472;53.486;14.542;2023-06-22T02:23:56;1.58;;;1.10;;
54575;SDS011;40472;53.486;14.542;2023-06-22T02:26:22;1.77;;;1.33;;
54575;SDS011;40472;53.486;14.542;2023-06-22T02:28:50;2.22;;;1.48;;
54575;SDS011;40472;53.486;14.542;2023-06-22T02:31:16;2.00;;;1.30;;
54575;SDS011;40472;53.486;14.542;2023-06-22T02:33:41;2.38;;;1.30;;
54575;SDS011;40472;53.486;14.542;2023-06-22T02:36:08;1.23;;;1.02;;
54575;SDS011;40472;53.486;14.542;2023-06-22T02:38:38;3.65;;;1.67;;
54575;SDS011;40472;53.486;14.542;2023-06-22T02:41:13;2.80;;;2.17;;
54575;SDS011;40472;53.486;14.542;2023-06-22T02:43:42;2.28;;;1.50;;
54575;SDS011;40472;53.486;14.542;2023-06-22T02:46:09;3.70;;;1.60;;
54575;SDS011;40472;53.486;14.542;2023-06-22T02:48:35;2.10;;;0.98;;
54575;SDS011;40472;53.486;14.542;2023-06-22T02:51:01;1.95;;;1.52;;
54575;SDS011;40472;53.486;14.542;2023-06-22T02:53:26;1.23;;;1.08;;
54575;SDS011;40472;53.486;14.542;2023-06-22T02:55:52;4.22;;;1.38;;
54575;SDS011;40472;53.486;14.542;2023-06-22T02:58:18;6.07;;;1.80;;
54575;SDS011;40472;53.486;14.542;2023-06-22T03:00:43;2.10;;;1.10;;
54575;SDS011;40472;53.486;14.542;2023-06-22T03:03:09;4.22;;;1.67;;
54575;SDS011;40472;53.486;14.542;2023-06-22T03:05:35;2.35;;;1.77;;
54575;SDS011;40472;53.486;14.542;2023-06-22T03:08:00;2.17;;;1.58;;
54575;SDS011;40472;53.486;14.542;2023-06-22T03:10:26;4.82;;;1.35;;
54575;SDS011;40472;53.486;14.542;2023-06-22T03:12:52;2.88;;;1.30;;
54575;SDS011;40472;53.486;14.542;2023-06-22T03:15:18;1.90;;;1.42;;
54575;SDS011;40472;53.486;14.542;2023-06-22T03:17:44;2.55;;;1.60;;
54575;SDS011;40472;53.486;14.542;2023-06-22T03:20:10;1.58;;;1.25;;
54575;SDS011;40472;53.486;14.542;2023-06-22T03:22:40;2.78;;;1.48;;
54575;SDS011;40472;53.486;14.542;2023-06-22T03:25:07;2.15;;;1.52;;
54575;SDS011;40472;53.486;14.542;2023-06-22T03:27:40;7.07;;;1.48;;
54575;SDS011;40472;53.486;14.542;2023-06-22T03:30:07;1.58;;;1.13;;
54575;SDS011;40472;53.486;14.542;2023-06-22T03:32:34;1.17;;;0.98;;
54575;SDS011;40472;53.486;14.542;2023-06-22T03:35:02;2.15;;;1.30;;
54575;SDS011;40472;53.486;14.542;2023-06-22T03:37:28;2.92;;;1.30;;
54575;SDS011;40472;53.486;14.542;2023-06-22T03:39:54;2.65;;;1.02;;
54575;SDS011;40472;53.486;14.542;2023-06-22T03:42:20;1.50;;;1.20;;
54575;SDS011;40472;53.486;14.542;2023-06-22T03:44:46;1.02;;;0.93;;
54575;SDS011;40472;53.486;14.542;2023-06-22T03:47:12;1.33;;;1.05;;
54575;SDS011;40472;53.486;14.542;2023-06-22T03:49:38;2.20;;;1.08;;
54575;SDS011;40472;53.486;14.542;2023-06-22T03:52:03;2.08;;;1.25;;
54575;SDS011;40472;53.486;14.542;2023-06-22T03:54:30;2.17;;;1.17;;
54575;SDS011;40472;53.486;14.542;2023-06-22T03:56:57;2.13;;;1.52;;
54575;SDS011;40472;53.486;14.542;2023-06-22T03:59:23;1.90;;;1.30;;
54575;SDS011;40472;53.486;14.542;2023-06-22T04:01:49;5.72;;;1.40;;
54575;SDS011;40472;53.486;14.542;2023-06-22T04:04:15;1.55;;;1.17;;
54575;SDS011;40472;53.486;14.542;2023-06-22T04:06:45;2.50;;;1.50;;
54575;SDS011;40472;53.486;14.542;2023-06-22T04:09:10;1.67;;;1.23;;
54575;SDS011;40472;53.486;14.542;2023-06-22T04:11:37;2.72;;;1.52;;
54575;SDS011;40472;53.486;14.542;2023-06-22T04:14:02;1.65;;;1.00;;
54575;SDS011;40472;53.486;14.542;2023-06-22T04:16:28;2.80;;;1.58;;
54575;SDS011;40472;53.486;14.542;2023-06-22T04:18:54;2.13;;;1.35;;
54575;SDS011;40472;53.486;14.542;2023-06-22T04:21:19;2.13;;;1.40;;
54575;SDS011;40472;53.486;14.542;2023-06-22T04:23:45;2.10;;;1.30;;
54575;SDS011;40472;53.486;14.542;2023-06-22T04:26:12;3.22;;;1.65;;
54575;SDS011;40472;53.486;14.542;2023-06-22T04:28:39;2.97;;;1.77;;
54575;SDS011;40472;53.486;14.542;2023-06-22T04:31:05;3.03;;;1.13;;
54575;SDS011;40472;53.486;14.542;2023-06-22T04:33:31;9.57;;;1.75;;
54575;SDS011;40472;53.486;14.542;2023-06-22T04:35:57;3.47;;;2.00;;
54575;SDS011;40472;53.486;14.542;2023-06-22T04:38:26;2.70;;;1.75;;
54575;SDS011;40472;53.486;14.542;2023-06-22T04:40:52;6.70;;;2.22;;
54575;SDS011;40472;53.486;14.542;2023-06-22T04:43:18;3.35;;;1.70;;
54575;SDS011;40472;53.486;14.542;2023-06-22T04:45:47;4.57;;;2.22;;
54575;SDS011;40472;53.486;14.542;2023-06-22T04:48:17;2.08;;;1.50;;
54575;SDS011;40472;53.486;14.542;2023-06-22T04:50:43;2.60;;;1.60;;
54575;SDS011;40472;53.486;14.542;2023-06-22T04:53:09;2.80;;;1.90;;
54575;SDS011;40472;53.486;14.542;2023-06-22T04:55:37;4.45;;;1.50;;
54575;SDS011;40472;53.486;14.542;2023-06-22T04:58:06;1.90;;;1.15;;
54575;SDS011;40472;53.486;14.542;2023-06-22T05:00:32;2.55;;;1.25;;
54575;SDS011;40472;53.486;14.542;2023-06-22T05:03:01;2.55;;;1.33;;
54575;SDS011;40472;53.486;14.542;2023-06-22T05:05:28;2.10;;;1.30;;
54575;SDS011;40472;53.486;14.542;2023-06-22T05:07:56;5.30;;;1.35;;
54575;SDS011;40472;53.486;14.542;2023-06-22T05:10:25;1.80;;;1.17;;
54575;SDS011;40472;53.486;14.542;2023-06-22T05:12:51;1.38;;;1.00;;
54575;SDS011;40472;53.486;14.542;2023-06-22T05:15:16;1.98;;;0.73;;
54575;SDS011;40472;53.486;14.542;2023-06-22T05:17:44;1.15;;;0.80;;
54575;SDS011;40472;53.486;14.542;2023-06-22T05:20:11;1.25;;;0.82;;
54575;SDS011;40472;53.486;14.542;2023-06-22T05:22:43;2.15;;;1.02;;
54575;SDS011;40472;53.486;14.542;2023-06-22T05:25:09;1.50;;;1.30;;
54575;SDS011;40472;53.486;14.542;2023-06-22T05:27:37;1.63;;;0.90;;
54575;SDS011;40472;53.486;14.542;2023-06-22T05:30:05;1.48;;;1.08;;
54575;SDS011;40472;53.486;14.542;2023-06-22T05:32:35;3.00;;;1.33;;
54575;SDS011;40472;53.486;14.542;2023-06-22T05:35:01;2.22;;;1.10;;
54575;SDS011;40472;53.486;14.542;2023-06-22T05:37:28;2.10;;;1.30;;
54575;SDS011;40472;53.486;14.542;2023-06-22T05:39:54;1.88;;;0.77;;
54575;SDS011;40472;53.486;14.542;2023-06-22T05:42:20;3.47;;;1.20;;
54575;SDS011;40472;53.486;14.542;2023-06-22T05:44:46;3.17;;;2.03;;
54575;SDS011;40472;53.486;14.542;2023-06-22T05:47:12;3.45;;;1.70;;
54575;SDS011;40472;53.486;14.542;2023-06-22T05:49:38;4.65;;;1.85;;
54575;SDS011;40472;53.486;14.542;2023-06-22T05:52:04;4.43;;;2.75;;
54575;SDS011;40472;53.486;14.542;2023-06-22T05:54:33;5.15;;;1.85;;
54575;SDS011;40472;53.486;14.542;2023-06-22T05:56:58;5.57;;;2.58;;
54575;SDS011;40472;53.486;14.542;2023-06-22T05:59:25;5.35;;;2.70;;
54575;SDS011;40472;53.486;14.542;2023-06-22T06:01:50;12.88;;;5.80;;
54575;SDS011;40472;53.486;14.542;2023-06-22T06:04:19;6.65;;;3.75;;
54575;SDS011;40472;53.486;14.542;2023-06-22T06:06:45;14.25;;;5.53;;
54575;SDS011;40472;53.486;14.542;2023-06-22T06:09:12;11.68;;;5.22;;
54575;SDS011;40472;53.486;14.542;2023-06-22T06:11:38;7.85;;;4.30;;
54575;SDS011;40472;53.486;14.542;2023-06-22T06:14:04;11.52;;;4.22;;
54575;SDS011;40472;53.486;14.542;2023-06-22T06:16:30;20.17;;;5.70;;
54575;SDS011;40472;53.486;14.542;2023-06-22T06:18:56;6.78;;;3.53;;
54575;SDS011;40472;53.486;14.542;2023-06-22T06:21:24;6.32;;;3.58;;
54575;SDS011;40472;53.486;14.542;2023-06-22T06:23:49;4.10;;;2.97;;
54575;SDS011;40472;53.486;14.542;2023-06-22T06:26:15;6.05;;;2.65;;
54575;SDS011;40472;53.486;14.542;2023-06-22T06:28:42;6.40;;;2.90;;
54575;SDS011;40472;53.486;14.542;2023-06-22T06:31:11;6.22;;;2.47;;
54575;SDS011;40472;53.486;14.542;2023-06-22T06:33:37;6.55;;;3.05;;
54575;SDS011;40472;53.486;14.542;2023-06-22T06:36:02;3.58;;;1.75;;
54575;SDS011;40472;53.486;14.542;2023-06-22T06:38:29;2.35;;;1.30;;
54575;SDS011;40472;53.486;14.542;2023-06-22T06:40:55;2.35;;;1.30;;
54575;SDS011;40472;53.486;14.542;2023-06-22T06:43:21;5.25;;;1.45;;
54575;SDS011;40472;53.486;14.542;2023-06-22T06:45:48;1.80;;;1.10;;
54575;SDS011;40472;53.486;14.542;2023-06-22T06:48:14;1.75;;;1.20;;
54575;SDS011;40472;53.486;14.542;2023-06-22T06:50:40;3.80;;;2.28;;
54575;SDS011;40472;53.486;14.542;2023-06-22T06:53:06;3.00;;;1.92;;
54575;SDS011;40472;53.486;14.542;2023-06-22T06:55:32;5.32;;;1.40;;
54575;SDS011;40472;53.486;14.542;2023-06-22T06:58:01;7.75;;;2.03;;
54575;SDS011;40472;53.486;14.542;2023-06-22T07:00:29;4.50;;;2.03;;
54575;SDS011;40472;53.486;14.542;2023-06-22T07:02:55;3.58;;;1.58;;
54575;SDS011;40472;53.486;14.542;2023-06-22T07:05:20;2.90;;;1.42;;
54575;SDS011;40472;53.486;14.542;2023-06-22T07:07:46;4.82;;;1.90;;
54575;SDS011;40472;53.486;14.542;2023-06-22T07:10:12;6.25;;;3.00;;
54575;SDS011;40472;53.486;14.542;2023-06-22T07:12:40;7.65;;;1.95;;
54575;SDS011;40472;53.486;14.542;2023-06-22T07:15:06;2.95;;;1.63;;
54575;SDS011;40472;53.486;14.542;2023-06-22T07:17:33;2.63;;;1.33;;
54575;SDS011;40472;53.486;14.542;2023-06-22T07:20:02;3.15;;;1.45;;
54575;SDS011;40472;53.486;14.542;2023-06-22T07:22:37;2.45;;;1.77;;
54575;SDS011;40472;53.486;14.542;2023-06-22T07:25:04;4.05;;;1.25;;
54575;SDS011;40472;53.486;14.542;2023-06-22T07:27:37;4.82;;;1.13;;
54575;SDS011;40472;53.486;14.542;2023-06-22T07:30:08;2.60;;;1.25;;
54575;SDS011;40472;53.486;14.542;2023-06-22T07:32:34;1.50;;;0.98;;
54575;SDS011;40472;53.486;14.542;2023-06-22T07:35:00;2.75;;;1.23;;
54575;SDS011;40472;53.486;14.542;2023-06-22T07:37:27;2.50;;;1.05;;
54575;SDS011;40472;53.486;14.542;2023-06-22T07:39:54;1.67;;;0.82;;
54575;SDS011;40472;53.486;14.542;2023-06-22T07:42:26;1.10;;;0.93;;
54575;SDS011;40472;53.486;14.542;2023-06-22T07:44:53;1.48;;;0.93;;
54575;SDS011;40472;53.486;14.542;2023-06-22T07:47:19;4.15;;;0.90;;
54575;SDS011;40472;53.486;14.542;2023-06-22T07:49:50;2.03;;;1.30;;
54575;SDS011;40472;53.486;14.542;2023-06-22T07:52:15;4.03;;;0.88;;
54575;SDS011;40472;53.486;14.542;2023-06-22T07:54:41;0.77;;;0.50;;
54575;SDS011;40472;53.486;14.542;2023-06-22T07:57:07;1.13;;;0.82;;
54575;SDS011;40472;53.486;14.542;2023-06-22T07:59:33;1.20;;;0.70;;
54575;SDS011;40472;53.486;14.542;2023-06-22T08:01:59;3.00;;;1.00;;
54575;SDS011;40472;53.486;14.542;2023-06-22T08:04:28;1.50;;;0.98;;
54575;SDS011;40472;53.486;14.542;2023-06-22T08:06:56;0.80;;;0.60;;
54575;SDS011;40472;53.486;14.542;2023-06-22T08:09:22;0.90;;;0.57;;
54575;SDS011;40472;53.486;14.542;2023-06-22T08:11:47;2.10;;;0.90;;
54575;SDS011;40472;53.486;14.542;2023-06-22T08:14:14;1.48;;;1.00;;
54575;SDS011;40472;53.486;14.542;2023-06-22T08:16:40;1.10;;;0.65;;
54575;SDS011;40472;53.486;14.542;2023-06-22T08:19:07;1.95;;;0.98;;
54575;SDS011;40472;53.486;14.542;2023-06-22T08:21:33;1.60;;;0.75;;
54575;SDS011;40472;53.486;14.542;2023-06-22T08:23:59;1.55;;;1.00;;
54575;SDS011;40472;53.486;14.542;2023-06-22T08:26:25;3.58;;;0.88;;
54575;SDS011;40472;53.486;14.542;2023-06-22T08:28:51;1.10;;;0.68;;
54575;SDS011;40472;53.486;14.542;2023-06-22T08:31:17;1.17;;;0.68;;
54575;SDS011;40472;53.486;14.542;2023-06-22T08:33:43;1.10;;;0.70;;
54575;SDS011;40472;53.486;14.542;2023-06-22T08:36:10;1.55;;;0.80;;
54575;SDS011;40472;53.486;14.542;2023-06-22T08:38:38;5.75;;;1.08;;
54575;SDS011;40472;53.486;14.542;2023-06-22T08:41:04;1.63;;;0.77;;
54575;SDS011;40472;53.486;14.542;2023-06-22T08:43:30;1.50;;;0.75;;
54575;SDS011;40472;53.486;14.542;2023-06-22T08:45:56;0.73;;;0.70;;
54575;SDS011;40472;53.486;14.542;2023-06-22T08:48:22;2.20;;;0.82;;
54575;SDS011;40472;53.486;14.542;2023-06-22T08:50:48;1.58;;;0.65;;
54575;SDS011;40472;53.486;14.542;2023-06-22T08:53:13;2.40;;;0.82;;
54575;SDS011;40472;53.486;14.542;2023-06-22T08:55:42;2.05;;;1.00;;
54575;SDS011;40472;53.486;14.542;2023-06-22T08:58:10;1.55;;;0.90;;
54575;SDS011;40472;53.486;14.542;2023-06-22T09:00:36;1.83;;;0.98;;
54575;SDS011;40472;53.486;14.542;2023-06-22T09:03:02;1.45;;;0.95;;
54575;SDS011;40472;53.486;14.542;2023-06-22T09:05:29;1.30;;;0.63;;
54575;SDS011;40472;53.486;14.542;2023-06-22T09:07:56;0.88;;;0.70;;
54575;SDS011;40472;53.486;14.542;2023-06-22T09:10:23;1.17;;;0.90;;
54575;SDS011;40472;53.486;14.542;2023-06-22T09:12:50;1.00;;;0.93;;
54575;SDS011;40472;53.486;14.542;2023-06-22T09:15:16;1.75;;;1.05;;
54575;SDS011;40472;53.486;14.542;2023-06-22T09:17:42;2.10;;;1.10;;
54575;SDS011;40472;53.486;14.542;2023-06-22T09:20:08;3.15;;;1.30;;
54575;SDS011;40472;53.486;14.542;2023-06-22T09:22:36;0.80;;;0.77;;
54575;SDS011;40472;53.486;14.542;2023-06-22T09:25:01;1.67;;;0.90;;
54575;SDS011;40472;53.486;14.542;2023-06-22T09:27:28;1.92;;;0.88;;
54575;SDS011;40472;53.486;14.542;2023-06-22T09:29:55;0.77;;;0.70;;
54575;SDS011;40472;53.486;14.542;2023-06-22T09:32:23;1.10;;;0.60;;
54575;SDS011;40472;53.486;14.542;2023-06-22T09:34:49;1.50;;;0.70;;
54575;SDS011;40472;53.486;14.542;2023-06-22T09:37:18;1.13;;;0.75;;
54575;SDS011;40472;53.486;14.542;2023-06-22T09:39:44;1.85;;;0.75;;
54575;SDS011;40472;53.486;14.542;2023-06-22T09:42:10;2.10;;;1.25;;
54575;SDS011;40472;53.486;14.542;2023-06-22T09:44:36;2.60;;;0.85;;
54575;SDS011;40472;53.486;14.542;2023-06-22T09:47:02;3.97;;;0.90;;
54575;SDS011;40472;53.486;14.542;2023-06-22T09:49:28;2.03;;;0.90;;
54575;SDS011;40472;53.486;14.542;2023-06-22T09:51:54;1.17;;;0.68;;
54575;SDS011;40472;53.486;14.542;2023-06-22T09:54:20;3.45;;;1.08;;
54575;SDS011;40472;53.486;14.542;2023-06-22T09:56:46;0.88;;;0.80;;
54575;SDS011;40472;53.486;14.542;2023-06-22T09:59:11;1.52;;;0.90;;
54575;SDS011;40472;53.486;14.542;2023-06-22T10:01:37;1.00;;;0.73;;
54575;SDS011;40472;53.486;14.542;2023-06-22T10:04:03;1.02;;;0.70;;
54575;SDS011;40472;53.486;14.542;2023-06-22T10:06:29;1.25;;;0.77;;
54575;SDS011;40472;53.486;14.542;2023-06-22T10:08:55;1.17;;;0.80;;
54575;SDS011;40472;53.486;14.542;2023-06-22T10:11:20;1.45;;;1.08;;
54575;SDS011;40472;53.486;14.542;2023-06-22T10:13:52;1.02;;;0.65;;
54575;SDS011;40472;53.486;14.542;2023-06-22T10:16:17;1.17;;;0.70;;
54575;SDS011;40472;53.486;14.542;2023-06-22T10:18:43;1.48;;;1.00;;
54575;SDS011;40472;53.486;14.542;2023-06-22T10:21:09;2.22;;;0.90;;
54575;SDS011;40472;53.486;14.542;2023-06-22T10:23:35;1.25;;;1.10;;
54575;SDS011;40472;53.486;14.542;2023-06-22T10:26:00;1.63;;;0.95;;
54575;SDS011;40472;53.486;14.542;2023-06-22T10:28:26;1.90;;;0.75;;
54575;SDS011;40472;53.486;14.542;2023-06-22T10:30:52;1.38;;;0.88;;
54575;SDS011;40472;53.486;14.542;2023-06-22T10:33:22;1.67;;;1.00;;
54575;SDS011;40472;53.486;14.542;2023-06-22T10:35:48;2.08;;;1.25;;
54575;SDS011;40472;53.486;14.542;2023-06-22T10:38:14;1.00;;;0.90;;
54575;SDS011;40472;53.486;14.542;2023-06-22T10:40:40;2.05;;;1.02;;
54575;SDS011;40472;53.486;14.542;2023-06-22T10:43:06;4.07;;;1.00;;
54575;SDS011;40472;53.486;14.542;2023-06-22T10:45:32;3.92;;;1.35;;
54575;SDS011;40472;53.486;14.542;2023-06-22T10:47:58;8.98;;;0.80;;
54575;SDS011;40472;53.486;14.542;2023-06-22T10:50:24;3.88;;;1.17;;
54575;SDS011;40472;53.486;14.542;2023-06-22T10:52:50;2.25;;;0.93;;
54575;SDS011;40472;53.486;14.542;2023-06-22T10:55:16;1.55;;;0.90;;
54575;SDS011;40472;53.486;14.542;2023-06-22T10:57:42;2.42;;;1.00;;
54575;SDS011;40472;53.486;14.542;2023-06-22T11:00:09;1.52;;;1.15;;
54575;SDS011;40472;53.486;14.542;2023-06-22T11:02:36;5.93;;;2.30;;
54575;SDS011;40472;53.486;14.542;2023-06-22T11:05:02;3.45;;;1.85;;
54575;SDS011;40472;53.486;14.542;2023-06-22T11:07:28;5.53;;;2.00;;
54575;SDS011;40472;53.486;14.542;2023-06-22T11:09:54;2.28;;;1.40;;
54575;SDS011;40472;53.486;14.542;2023-06-22T11:12:20;3.10;;;1.65;;
54575;SDS011;40472;53.486;14.542;2023-06-22T11:14:46;3.88;;;1.67;;
54575;SDS011;40472;53.486;14.542;2023-06-22T11:17:12;3.20;;;1.48;;
54575;SDS011;40472;53.486;14.542;2023-06-22T11:19:37;2.83;;;1.30;;
54575;SDS011;40472;53.486;14.542;2023-06-22T11:22:03;3.47;;;1.75;;
54575;SDS011;40472;53.486;14.542;2023-06-22T11:24:29;3.30;;;1.42;;
54575;SDS011;40472;53.486;14.542;2023-06-22T11:26:55;2.70;;;1.50;;
54575;SDS011;40472;53.486;14.542;2023-06-22T11:29:20;3.75;;;1.70;;
54575;SDS011;40472;53.486;14.542;2023-06-22T11:31:48;3.08;;;1.58;;
54575;SDS011;40472;53.486;14.542;2023-06-22T11:34:14;2.50;;;1.40;;
54575;SDS011;40472;53.486;14.542;2023-06-22T11:36:40;2.85;;;1.58;;
54575;SDS011;40472;53.486;14.542;2023-06-22T11:39:07;2.55;;;1.20;;
54575;SDS011;40472;53.486;14.542;2023-06-22T11:41:34;4.00;;;1.90;;
54575;SDS011;40472;53.486;14.542;2023-06-22T11:44:00;4.35;;;1.55;;
54575;SDS011;40472;53.486;14.542;2023-06-22T11:46:26;14.43;;;1.25;;
54575;SDS011;40472;53.486;14.542;2023-06-22T11:48:52;2.55;;;1.10;;
54575;SDS011;40472;53.486;14.542;2023-06-22T11:51:18;1.42;;;0.82;;
54575;SDS011;40472;53.486;14.542;2023-06-22T11:53:44;4.00;;;1.33;;
54575;SDS011;40472;53.486;14.542;2023-06-22T11:56:09;1.83;;;0.93;;
54575;SDS011;40472;53.486;14.542;2023-06-22T11:58:35;1.23;;;0.95;;
54575;SDS011;40472;53.486;14.542;2023-06-22T12:01:01;2.00;;;1.02;;
54575;SDS011;40472;53.486;14.542;2023-06-22T12:03:27;3.13;;;0.80;;
54575;SDS011;40472;53.486;14.542;2023-06-22T12:05:52;1.23;;;0.50;;
54575;SDS011;40472;53.486;14.542;2023-06-22T12:08:18;1.30;;;0.88;;
54575;SDS011;40472;53.486;14.542;2023-06-22T12:10:44;2.88;;;1.15;;
54575;SDS011;40472;53.486;14.542;2023-06-22T12:13:10;2.25;;;0.70;;
54575;SDS011;40472;53.486;14.542;2023-06-22T12:15:36;1.20;;;0.80;;
54575;SDS011;40472;53.486;14.542;2023-06-22T12:18:02;4.70;;;1.05;;
54575;SDS011;40472;53.486;14.542;2023-06-22T12:20:28;2.72;;;0.80;;
54575;SDS011;40472;53.486;14.542;2023-06-22T12:22:53;2.33;;;1.10;;
54575;SDS011;40472;53.486;14.542;2023-06-22T12:25:21;1.40;;;1.10;;
54575;SDS011;40472;53.486;14.542;2023-06-22T12:27:47;4.60;;;1.27;;
54575;SDS011;40472;53.486;14.542;2023-06-22T12:30:15;3.55;;;1.02;;
54575;SDS011;40472;53.486;14.542;2023-06-22T12:32:41;1.83;;;1.00;;
54575;SDS011;40472;53.486;14.542;2023-06-22T12:35:07;3.10;;;1.20;;
54575;SDS011;40472;53.486;14.542;2023-06-22T12:37:42;1.17;;;0.68;;
54575;SDS011;40472;53.486;14.542;2023-06-22T12:40:08;1.65;;;1.20;;
54575;SDS011;40472;53.486;14.542;2023-06-22T12:42:35;2.42;;;1.02;;
54575;SDS011;40472;53.486;14.542;2023-06-22T12:45:01;1.00;;;0.73;;
54575;SDS011;40472;53.486;14.542;2023-06-22T12:47:27;2.25;;;1.02;;
54575;SDS011;40472;53.486;14.542;2023-06-22T12:49:53;1.90;;;0.85;;
54575;SDS011;40472;53.486;14.542;2023-06-22T12:52:18;2.38;;;1.33;;
54575;SDS011;40472;53.486;14.542;2023-06-22T12:54:44;2.95;;;1.25;;
54575;SDS011;40472;53.486;14.542;2023-06-22T12:57:10;2.17;;;1.30;;
54575;SDS011;40472;53.486;14.542;2023-06-22T12:59:36;1.52;;;1.13;;
54575;SDS011;40472;53.486;14.542;2023-06-22T13:02:02;3.00;;;0.85;;
54575;SDS011;40472;53.486;14.542;2023-06-22T13:04:28;1.45;;;0.77;;
54575;SDS011;40472;53.486;14.542;2023-06-22T13:06:54;1.58;;;0.80;;
54575;SDS011;40472;53.486;14.542;2023-06-22T13:09:19;2.47;;;1.27;;
54575;SDS011;40472;53.486;14.542;2023-06-22T13:11:45;1.95;;;1.25;;
54575;SDS011;40472;53.486;14.542;2023-06-22T13:14:11;4.10;;;1.42;;
54575;SDS011;40472;53.486;14.542;2023-06-22T13:16:36;1.70;;;1.30;;
54575;SDS011;40472;53.486;14.542;2023-06-22T13:19:02;1.48;;;0.73;;
54575;SDS011;40472;53.486;14.542;2023-06-22T13:21:28;2.15;;;1.30;;
54575;SDS011;40472;53.486;14.542;2023-06-22T13:23:55;3.08;;;1.00;;
54575;SDS011;40472;53.486;14.542;2023-06-22T13:26:21;2.40;;;1.25;;
54575;SDS011;40472;53.486;14.542;2023-06-22T13:28:47;2.70;;;1.05;;
54575;SDS011;40472;53.486;14.542;2023-06-22T13:31:13;2.17;;;1.20;;
54575;SDS011;40472;53.486;14.542;2023-06-22T13:33:39;3.58;;;1.77;;
54575;SDS011;40472;53.486;14.542;2023-06-22T13:36:06;3.83;;;1.50;;
54575;SDS011;40472;53.486;14.542;2023-06-22T13:38:32;2.47;;;1.42;;
54575;SDS011;40472;53.486;14.542;2023-06-22T13:41:03;2.17;;;0.98;;
54575;SDS011;40472;53.486;14.542;2023-06-22T13:43:29;1.98;;;1.20;;
54575;SDS011;40472;53.486;14.542;2023-06-22T13:45:55;2.45;;;1.08;;
54575;SDS011;40472;53.486;14.542;2023-06-22T13:48:21;2.17;;;1.23;;
54575;SDS011;40472;53.486;14.542;2023-06-22T13:50:48;1.77;;;1.25;;
54575;SDS011;40472;53.486;14.542;2023-06-22T13:53:14;2.70;;;1.42;;
54575;SDS011;40472;53.486;14.542;2023-06-22T13:55:40;4.10;;;1.05;;
54575;SDS011;40472;53.486;14.542;2023-06-22T13:58:06;2.40;;;1.15;;
54575;SDS011;40472;53.486;14.542;2023-06-22T14:00:32;2.58;;;1.38;;
54575;SDS011;40472;53.486;14.542;2023-06-22T14:02:58;2.63;;;1.65;;
54575;SDS011;40472;53.486;14.542;2023-06-22T14:05:23;1.88;;;1.20;;
54575;SDS011;40472;53.486;14.542;2023-06-22T14:07:49;9.55;;;1.48;;
54575;SDS011;40472;53.486;14.542;2023-06-22T14:10:15;1.83;;;0.90;;
54575;SDS011;40472;53.486;14.542;2023-06-22T14:12:41;3.63;;;1.58;;
54575;SDS011;40472;53.486;14.542;2023-06-22T14:15:06;4.03;;;1.33;;
54575;SDS011;40472;53.486;14.542;2023-06-22T14:17:32;2.35;;;1.45;;
54575;SDS011;40472;53.486;14.542;2023-06-22T14:19:59;4.85;;;1.20;;
54575;SDS011;40472;53.486;14.542;2023-06-22T14:22:25;1.95;;;1.27;;
54575;SDS011;40472;53.486;14.542;2023-06-22T14:24:54;1.88;;;1.25;;
54575;SDS011;40472;53.486;14.542;2023-06-22T14:27:22;1.60;;;1.17;;
54575;SDS011;40472;53.486;14.542;2023-06-22T14:29:48;3.47;;;1.35;;
54575;SDS011;40472;53.486;14.542;2023-06-22T14:32:14;2.10;;;1.20;;
54575;SDS011;40472;53.486;14.542;2023-06-22T14:34:40;3.00;;;1.48;;
54575;SDS011;40472;53.486;14.542;2023-06-22T14:37:06;1.95;;;1.27;;
54575;SDS011;40472;53.486;14.542;2023-06-22T14:39:34;3.40;;;1.30;;